23AR weather

Classic Airstrip
Jonesboro, Arkansas, United States

Public forecast

Using degrees Fahrenheit for public forecast. Weather courtesy of forecast.io.

METAR (pilot weather report)

Closest report is Jonesboro Municipal Airport, 4.8 nm (9.0 km) W. Retrieved 2019/05/25 22:53 UTC (41 minutes ago):

KJBR 252253Z AUTO 18011KT 10SM FEW060 32/18 A3004 RMK AO2 SLP169 T03170178 $

TAF (pilot weather forecast)

Closest forecast is Jonesboro Municipal Airport, 4.8 nm (9.0 km) W. Retrieved 2019/05/25 18:36 UTC (5 hours ago):

TAF KJBR 251733Z 2518/2618 22012G19KT P6SM SCT045 FM260100 20006KT P6SM SKC FM261500 22012G17KT P6SM SCT050